sensor_id;sensor_type;location;lat;lon;timestamp;temperature;humidity
13488;DHT22;6816;48.506;9.050;2023-07-08T00:02:36;21.80;63.60
13488;DHT22;6816;48.506;9.050;2023-07-08T00:05:37;21.70;63.70
13488;DHT22;6816;48.506;9.050;2023-07-08T00:08:37;21.70;63.80
13488;DHT22;6816;48.506;9.050;2023-07-08T00:11:38;21.60;64.00
13488;DHT22;6816;48.506;9.050;2023-07-08T00:14:38;21.60;64.20
13488;DHT22;6816;48.506;9.050;2023-07-08T00:17:39;21.50;64.40
13488;DHT22;6816;48.506;9.050;2023-07-08T00:20:44;21.50;64.20
13488;DHT22;6816;48.506;9.050;2023-07-08T00:23:46;21.40;64.40
13488;DHT22;6816;48.506;9.050;2023-07-08T00:26:48;21.30;64.70
13488;DHT22;6816;48.506;9.050;2023-07-08T00:29:48;21.20;64.80
13488;DHT22;6816;48.506;9.050;2023-07-08T00:32:49;21.20;65.20
13488;DHT22;6816;48.506;9.050;2023-07-08T00:35:56;21.10;65.30
13488;DHT22;6816;48.506;9.050;2023-07-08T00:38:57;21.00;65.60
13488;DHT22;6816;48.506;9.050;2023-07-08T00:42:00;21.00;65.80
13488;DHT22;6816;48.506;9.050;2023-07-08T00:45:10;20.90;65.90
13488;DHT22;6816;48.506;9.050;2023-07-08T00:48:34;20.80;66.00
13488;DHT22;6816;48.506;9.050;2023-07-08T00:51:37;20.80;65.90
13488;DHT22;6816;48.506;9.050;2023-07-08T00:54:38;20.70;66.10
13488;DHT22;6816;48.506;9.050;2023-07-08T00:57:42;20.60;66.20
13488;DHT22;6816;48.506;9.050;2023-07-08T01:00:44;20.50;66.50
13488;DHT22;6816;48.506;9.050;2023-07-08T01:03:53;20.50;66.70
13488;DHT22;6816;48.506;9.050;2023-07-08T01:06:57;20.40;67.00
13488;DHT22;6816;48.506;9.050;2023-07-08T01:10:26;20.30;67.00
13488;DHT22;6816;48.506;9.050;2023-07-08T01:13:23;20.30;67.40
13488;DHT22;6816;48.506;9.050;2023-07-08T01:16:24;20.30;67.50
13488;DHT22;6816;48.506;9.050;2023-07-08T01:19:26;20.20;67.80
13488;DHT22;6816;48.506;9.050;2023-07-08T01:22:36;20.10;67.90
13488;DHT22;6816;48.506;9.050;2023-07-08T01:25:37;20.10;68.50
13488;DHT22;6816;48.506;9.050;2023-07-08T01:28:38;20.10;68.60
13488;DHT22;6816;48.506;9.050;2023-07-08T01:31:39;20.00;68.70
13488;DHT22;6816;48.506;9.050;2023-07-08T01:34:40;20.00;68.80
13488;DHT22;6816;48.506;9.050;2023-07-08T01:37:44;20.00;69.10
13488;DHT22;6816;48.506;9.050;2023-07-08T01:40:55;19.90;69.40
13488;DHT22;6816;48.506;9.050;2023-07-08T01:43:56;19.90;69.70
13488;DHT22;6816;48.506;9.050;2023-07-08T01:47:10;19.80;69.50
13488;DHT22;6816;48.506;9.050;2023-07-08T01:50:12;19.80;69.90
13488;DHT22;6816;48.506;9.050;2023-07-08T01:53:20;19.70;69.90
13488;DHT22;6816;48.506;9.050;2023-07-08T01:56:22;19.60;70.40
13488;DHT22;6816;48.506;9.050;2023-07-08T01:59:22;19.60;70.30
13488;DHT22;6816;48.506;9.050;2023-07-08T02:02:23;19.50;70.30
13488;DHT22;6816;48.506;9.050;2023-07-08T02:05:24;19.50;70.40
13488;DHT22;6816;48.506;9.050;2023-07-08T02:08:25;19.40;70.30
13488;DHT22;6816;48.506;9.050;2023-07-08T02:11:26;19.30;70.40
13488;DHT22;6816;48.506;9.050;2023-07-08T02:14:26;19.30;70.50
13488;DHT22;6816;48.506;9.050;2023-07-08T02:17:27;19.20;70.70
13488;DHT22;6816;48.506;9.050;2023-07-08T02:20:30;19.10;70.90
13488;DHT22;6816;48.506;9.050;2023-07-08T02:23:31;19.10;71.10
13488;DHT22;6816;48.506;9.050;2023-07-08T02:26:31;19.00;71.30
13488;DHT22;6816;48.506;9.050;2023-07-08T02:29:32;19.00;71.60
13488;DHT22;6816;48.506;9.050;2023-07-08T02:32:33;18.90;71.60
13488;DHT22;6816;48.506;9.050;2023-07-08T02:35:38;18.90;71.80
13488;DHT22;6816;48.506;9.050;2023-07-08T02:38:39;18.80;71.90
13488;DHT22;6816;48.506;9.050;2023-07-08T02:41:40;18.80;72.10
13488;DHT22;6816;48.506;9.050;2023-07-08T02:44:40;18.80;72.30
13488;DHT22;6816;48.506;9.050;2023-07-08T02:47:41;18.80;72.70
13488;DHT22;6816;48.506;9.050;2023-07-08T02:50:42;18.80;72.90
13488;DHT22;6816;48.506;9.050;2023-07-08T02:53:42;18.80;73.40
13488;DHT22;6816;48.506;9.050;2023-07-08T02:56:43;18.80;73.40
13488;DHT22;6816;48.506;9.050;2023-07-08T02:59:43;18.80;73.50
13488;DHT22;6816;48.506;9.050;2023-07-08T03:02:45;18.80;73.50
13488;DHT22;6816;48.506;9.050;2023-07-08T03:05:54;18.90;73.60
13488;DHT22;6816;48.506;9.050;2023-07-08T03:08:55;19.00;74.90
13488;DHT22;6816;48.506;9.050;2023-07-08T03:11:56;19.00;74.70
13488;DHT22;6816;48.506;9.050;2023-07-08T03:14:56;19.00;73.70
13488;DHT22;6816;48.506;9.050;2023-07-08T03:17:57;19.00;73.70
13488;DHT22;6816;48.506;9.050;2023-07-08T03:20:57;19.00;73.80
13488;DHT22;6816;48.506;9.050;2023-07-08T03:23:58;19.00;74.70
13488;DHT22;6816;48.506;9.050;2023-07-08T03:26:59;19.00;73.90
13488;DHT22;6816;48.506;9.050;2023-07-08T03:30:05;19.00;73.90
13488;DHT22;6816;48.506;9.050;2023-07-08T03:33:06;19.00;74.00
13488;DHT22;6816;48.506;9.050;2023-07-08T03:36:17;19.00;74.30
13488;DHT22;6816;48.506;9.050;2023-07-08T03:39:24;19.00;74.70
13488;DHT22;6816;48.506;9.050;2023-07-08T03:42:25;18.90;74.30
13488;DHT22;6816;48.506;9.050;2023-07-08T03:45:26;19.00;74.40
13488;DHT22;6816;48.506;9.050;2023-07-08T03:48:27;18.90;74.30
13488;DHT22;6816;48.506;9.050;2023-07-08T03:51:30;19.00;74.70
13488;DHT22;6816;48.506;9.050;2023-07-08T03:54:32;19.00;75.20
13488;DHT22;6816;48.506;9.050;2023-07-08T03:57:32;19.10;75.30
13488;DHT22;6816;48.506;9.050;2023-07-08T04:00:33;19.10;75.40
13488;DHT22;6816;48.506;9.050;2023-07-08T04:03:34;19.20;75.70
13488;DHT22;6816;48.506;9.050;2023-07-08T04:06:34;19.20;75.70
13488;DHT22;6816;48.506;9.050;2023-07-08T04:09:35;19.20;75.60
13488;DHT22;6816;48.506;9.050;2023-07-08T04:12:36;19.20;75.40
13488;DHT22;6816;48.506;9.050;2023-07-08T04:15:36;19.20;75.30
13488;DHT22;6816;48.506;9.050;2023-07-08T04:18:37;19.20;75.30
13488;DHT22;6816;48.506;9.050;2023-07-08T04:21:38;19.20;75.40
13488;DHT22;6816;48.506;9.050;2023-07-08T04:24:39;19.40;75.60
13488;DHT22;6816;48.506;9.050;2023-07-08T04:27:40;19.30;75.60
13488;DHT22;6816;48.506;9.050;2023-07-08T04:30:42;19.30;75.60
13488;DHT22;6816;48.506;9.050;2023-07-08T04:33:42;19.40;75.70
13488;DHT22;6816;48.506;9.050;2023-07-08T04:36:43;19.40;75.80
13488;DHT22;6816;48.506;9.050;2023-07-08T04:39:44;19.40;75.90
13488;DHT22;6816;48.506;9.050;2023-07-08T04:42:45;19.40;76.20
13488;DHT22;6816;48.506;9.050;2023-07-08T04:45:51;19.50;76.60
13488;DHT22;6816;48.506;9.050;2023-07-08T04:48:52;19.60;76.90
13488;DHT22;6816;48.506;9.050;2023-07-08T04:51:53;19.60;77.10
13488;DHT22;6816;48.506;9.050;2023-07-08T04:54:53;19.70;77.00
13488;DHT22;6816;48.506;9.050;2023-07-08T04:57:54;19.90;77.00
13488;DHT22;6816;48.506;9.050;2023-07-08T05:00:54;19.90;76.80
13488;DHT22;6816;48.506;9.050;2023-07-08T05:03:55;20.10;76.70
13488;DHT22;6816;48.506;9.050;2023-07-08T05:06:56;20.10;76.40
13488;DHT22;6816;48.506;9.050;2023-07-08T05:09:57;20.20;76.20
13488;DHT22;6816;48.506;9.050;2023-07-08T05:12:58;20.30;76.10
13488;DHT22;6816;48.506;9.050;2023-07-08T05:15:59;20.30;75.90
13488;DHT22;6816;48.506;9.050;2023-07-08T05:18:59;20.40;76.00
13488;DHT22;6816;48.506;9.050;2023-07-08T05:22:00;20.40;76.00
13488;DHT22;6816;48.506;9.050;2023-07-08T05:25:01;20.50;76.20
13488;DHT22;6816;48.506;9.050;2023-07-08T05:28:02;20.70;76.10
13488;DHT22;6816;48.506;9.050;2023-07-08T05:31:03;20.70;76.40
13488;DHT22;6816;48.506;9.050;2023-07-08T05:34:03;20.80;76.60
13488;DHT22;6816;48.506;9.050;2023-07-08T05:37:04;21.00;76.50
13488;DHT22;6816;48.506;9.050;2023-07-08T05:40:06;21.10;76.10
13488;DHT22;6816;48.506;9.050;2023-07-08T05:43:07;21.30;75.50
13488;DHT22;6816;48.506;9.050;2023-07-08T05:46:08;21.40;75.20
13488;DHT22;6816;48.506;9.050;2023-07-08T05:49:08;21.40;74.80
13488;DHT22;6816;48.506;9.050;2023-07-08T05:52:09;21.50;74.40
13488;DHT22;6816;48.506;9.050;2023-07-08T05:55:11;21.60;74.30
13488;DHT22;6816;48.506;9.050;2023-07-08T05:58:12;21.60;74.10
13488;DHT22;6816;48.506;9.050;2023-07-08T06:01:15;21.70;73.90
13488;DHT22;6816;48.506;9.050;2023-07-08T06:04:16;21.70;73.60
13488;DHT22;6816;48.506;9.050;2023-07-08T06:07:16;21.70;73.60
13488;DHT22;6816;48.506;9.050;2023-07-08T06:10:17;21.80;73.70
13488;DHT22;6816;48.506;9.050;2023-07-08T06:13:18;21.80;73.70
13488;DHT22;6816;48.506;9.050;2023-07-08T06:16:18;21.80;73.70
13488;DHT22;6816;48.506;9.050;2023-07-08T06:19:19;21.90;73.80
13488;DHT22;6816;48.506;9.050;2023-07-08T06:22:19;21.90;73.80
13488;DHT22;6816;48.506;9.050;2023-07-08T06:25:20;21.90;73.70
13488;DHT22;6816;48.506;9.050;2023-07-08T06:28:21;21.90;73.80
13488;DHT22;6816;48.506;9.050;2023-07-08T06:31:22;21.90;73.80
13488;DHT22;6816;48.506;9.050;2023-07-08T06:34:22;22.00;74.00
13488;DHT22;6816;48.506;9.050;2023-07-08T06:37:24;22.00;73.70
13488;DHT22;6816;48.506;9.050;2023-07-08T06:40:24;22.00;73.70
13488;DHT22;6816;48.506;9.050;2023-07-08T06:43:25;22.00;73.70
13488;DHT22;6816;48.506;9.050;2023-07-08T06:46:26;22.10;73.90
13488;DHT22;6816;48.506;9.050;2023-07-08T06:49:27;22.10;73.90
13488;DHT22;6816;48.506;9.050;2023-07-08T06:52:28;22.20;74.20
13488;DHT22;6816;48.506;9.050;2023-07-08T06:55:34;22.20;74.20
13488;DHT22;6816;48.506;9.050;2023-07-08T06:58:34;22.30;74.00
13488;DHT22;6816;48.506;9.050;2023-07-08T07:01:35;22.40;73.90
13488;DHT22;6816;48.506;9.050;2023-07-08T07:04:37;22.50;74.20
13488;DHT22;6816;48.506;9.050;2023-07-08T07:07:37;22.50;74.30
13488;DHT22;6816;48.506;9.050;2023-07-08T07:10:38;22.60;73.80
13488;DHT22;6816;48.506;9.050;2023-07-08T07:13:39;22.80;73.50
13488;DHT22;6816;48.506;9.050;2023-07-08T07:16:39;22.90;73.20
13488;DHT22;6816;48.506;9.050;2023-07-08T07:19:40;23.00;72.80
13488;DHT22;6816;48.506;9.050;2023-07-08T07:22:40;23.00;72.50
13488;DHT22;6816;48.506;9.050;2023-07-08T07:25:41;23.20;72.50
13488;DHT22;6816;48.506;9.050;2023-07-08T07:28:41;23.30;73.30
13488;DHT22;6816;48.506;9.050;2023-07-08T07:31:42;23.40;72.40
13488;DHT22;6816;48.506;9.050;2023-07-08T07:34:45;23.50;72.10
13488;DHT22;6816;48.506;9.050;2023-07-08T07:37:46;23.60;72.20
13488;DHT22;6816;48.506;9.050;2023-07-08T07:40:46;23.70;71.90
13488;DHT22;6816;48.506;9.050;2023-07-08T07:43:47;23.80;71.90
13488;DHT22;6816;48.506;9.050;2023-07-08T07:46:47;23.90;71.40
13488;DHT22;6816;48.506;9.050;2023-07-08T07:49:48;24.10;70.90
13488;DHT22;6816;48.506;9.050;2023-07-08T07:52:49;24.20;70.70
13488;DHT22;6816;48.506;9.050;2023-07-08T07:55:59;24.30;70.30
13488;DHT22;6816;48.506;9.050;2023-07-08T07:59:00;24.40;69.20
13488;DHT22;6816;48.506;9.050;2023-07-08T08:02:01;24.50;69.50
13488;DHT22;6816;48.506;9.050;2023-07-08T08:05:01;24.60;69.10
13488;DHT22;6816;48.506;9.050;2023-07-08T08:08:02;24.70;68.90
13488;DHT22;6816;48.506;9.050;2023-07-08T08:11:04;24.80;69.30
13488;DHT22;6816;48.506;9.050;2023-07-08T08:14:04;24.90;68.90
13488;DHT22;6816;48.506;9.050;2023-07-08T08:17:05;25.00;68.60
13488;DHT22;6816;48.506;9.050;2023-07-08T08:20:06;25.10;67.90
13488;DHT22;6816;48.506;9.050;2023-07-08T08:23:07;25.20;67.80
13488;DHT22;6816;48.506;9.050;2023-07-08T08:26:08;25.30;67.30
13488;DHT22;6816;48.506;9.050;2023-07-08T08:29:08;25.30;67.20
13488;DHT22;6816;48.506;9.050;2023-07-08T08:32:09;25.40;67.40
13488;DHT22;6816;48.506;9.050;2023-07-08T08:35:10;25.50;68.00
13488;DHT22;6816;48.506;9.050;2023-07-08T08:38:11;25.60;68.40
13488;DHT22;6816;48.506;9.050;2023-07-08T08:41:21;25.60;67.00
13488;DHT22;6816;48.506;9.050;2023-07-08T08:44:31;25.70;65.50
13488;DHT22;6816;48.506;9.050;2023-07-08T08:47:37;25.80;65.70
13488;DHT22;6816;48.506;9.050;2023-07-08T08:51:03;25.90;66.10
13488;DHT22;6816;48.506;9.050;2023-07-08T08:54:07;26.00;64.80
13488;DHT22;6816;48.506;9.050;2023-07-08T08:57:14;26.10;66.30
13488;DHT22;6816;48.506;9.050;2023-07-08T09:00:41;26.10;65.90
13488;DHT22;6816;48.506;9.050;2023-07-08T09:03:54;26.20;65.10
13488;DHT22;6816;48.506;9.050;2023-07-08T09:07:08;26.30;64.20
13488;DHT22;6816;48.506;9.050;2023-07-08T09:10:31;26.30;65.40
13488;DHT22;6816;48.506;9.050;2023-07-08T09:13:36;26.40;65.00
13488;DHT22;6816;48.506;9.050;2023-07-08T09:16:47;26.40;65.10
13488;DHT22;6816;48.506;9.050;2023-07-08T09:20:17;26.50;63.40
13488;DHT22;6816;48.506;9.050;2023-07-08T09:23:25;26.60;63.00
13488;DHT22;6816;48.506;9.050;2023-07-08T09:26:27;26.70;63.50
13488;DHT22;6816;48.506;9.050;2023-07-08T09:29:31;26.80;63.50
13488;DHT22;6816;48.506;9.050;2023-07-08T09:32:32;26.90;63.10
13488;DHT22;6816;48.506;9.050;2023-07-08T09:35:46;27.00;62.90
13488;DHT22;6816;48.506;9.050;2023-07-08T09:38:48;27.00;62.00
13488;DHT22;6816;48.506;9.050;2023-07-08T09:41:49;27.10;63.10
13488;DHT22;6816;48.506;9.050;2023-07-08T09:44:58;27.10;62.70
13488;DHT22;6816;48.506;9.050;2023-07-08T09:48:01;27.20;61.90
13488;DHT22;6816;48.506;9.050;2023-07-08T09:51:02;27.30;62.40
13488;DHT22;6816;48.506;9.050;2023-07-08T09:54:03;27.40;62.90
13488;DHT22;6816;48.506;9.050;2023-07-08T09:57:27;27.50;62.80
13488;DHT22;6816;48.506;9.050;2023-07-08T10:00:33;27.60;62.50
13488;DHT22;6816;48.506;9.050;2023-07-08T10:03:35;27.70;62.00
13488;DHT22;6816;48.506;9.050;2023-07-08T10:06:37;27.80;62.70
13488;DHT22;6816;48.506;9.050;2023-07-08T10:09:37;27.90;62.40
13488;DHT22;6816;48.506;9.050;2023-07-08T10:12:39;28.00;62.40
13488;DHT22;6816;48.506;9.050;2023-07-08T10:16:34;28.20;61.50
13488;DHT22;6816;48.506;9.050;2023-07-08T10:19:15;28.30;60.10
13488;DHT22;6816;48.506;9.050;2023-07-08T10:28:37;28.80;59.10
13488;DHT22;6816;48.506;9.050;2023-07-08T10:31:46;28.90;59.50
13488;DHT22;6816;48.506;9.050;2023-07-08T10:45:34;29.50;57.40
13488;DHT22;6816;48.506;9.050;2023-07-08T10:59:02;30.10;56.50
13488;DHT22;6816;48.506;9.050;2023-07-08T11:05:40;30.30;55.70
13488;DHT22;6816;48.506;9.050;2023-07-08T11:08:48;30.30;56.10
13488;DHT22;6816;48.506;9.050;2023-07-08T11:18:24;30.60;56.00
13488;DHT22;6816;48.506;9.050;2023-07-08T11:21:47;30.70;55.10
13488;DHT22;6816;48.506;9.050;2023-07-08T11:24:50;30.80;53.60
13488;DHT22;6816;48.506;9.050;2023-07-08T11:27:55;31.00;54.80
13488;DHT22;6816;48.506;9.050;2023-07-08T11:30:58;31.10;53.30
13488;DHT22;6816;48.506;9.050;2023-07-08T11:34:02;31.20;53.60
13488;DHT22;6816;48.506;9.050;2023-07-08T11:37:03;31.20;53.30
13488;DHT22;6816;48.506;9.050;2023-07-08T11:43:05;31.40;53.30
13488;DHT22;6816;48.506;9.050;2023-07-08T11:46:06;31.50;53.20
13488;DHT22;6816;48.506;9.050;2023-07-08T11:49:13;31.60;53.00
13488;DHT22;6816;48.506;9.050;2023-07-08T11:52:18;31.70;51.70
13488;DHT22;6816;48.506;9.050;2023-07-08T11:55:26;31.80;51.90
13488;DHT22;6816;48.506;9.050;2023-07-08T11:58:32;31.80;50.90
13488;DHT22;6816;48.506;9.050;2023-07-08T12:01:47;31.90;51.60
13488;DHT22;6816;48.506;9.050;2023-07-08T12:07:56;32.10;51.00
13488;DHT22;6816;48.506;9.050;2023-07-08T12:11:01;32.10;51.00
13488;DHT22;6816;48.506;9.050;2023-07-08T12:14:03;32.20;50.90
13488;DHT22;6816;48.506;9.050;2023-07-08T12:17:09;32.20;50.30
13488;DHT22;6816;48.506;9.050;2023-07-08T12:20:21;32.30;50.30
13488;DHT22;6816;48.506;9.050;2023-07-08T12:23:24;32.30;49.10
13488;DHT22;6816;48.506;9.050;2023-07-08T12:26:25;32.40;50.50
13488;DHT22;6816;48.506;9.050;2023-07-08T12:29:26;32.50;50.20
13488;DHT22;6816;48.506;9.050;2023-07-08T12:32:26;32.60;49.80
13488;DHT22;6816;48.506;9.050;2023-07-08T12:35:31;32.60;50.60
13488;DHT22;6816;48.506;9.050;2023-07-08T12:38:42;32.80;49.40
13488;DHT22;6816;48.506;9.050;2023-07-08T12:41:58;32.80;48.50
13488;DHT22;6816;48.506;9.050;2023-07-08T12:44:59;33.00;49.00
13488;DHT22;6816;48.506;9.050;2023-07-08T12:47:59;33.00;48.70
13488;DHT22;6816;48.506;9.050;2023-07-08T12:51:00;33.10;48.50
13488;DHT22;6816;48.506;9.050;2023-07-08T12:54:01;33.20;48.10
13488;DHT22;6816;48.506;9.050;2023-07-08T12:57:01;33.30;47.80
13488;DHT22;6816;48.506;9.050;2023-07-08T13:00:03;33.30;47.90
13488;DHT22;6816;48.506;9.050;2023-07-08T13:03:19;33.40;47.90
13488;DHT22;6816;48.506;9.050;2023-07-08T13:06:25;33.50;45.50
13488;DHT22;6816;48.506;9.050;2023-07-08T13:09:39;33.50;46.70
13488;DHT22;6816;48.506;9.050;2023-07-08T13:12:43;33.60;45.80
13488;DHT22;6816;48.506;9.050;2023-07-08T13:15:45;33.60;46.70
13488;DHT22;6816;48.506;9.050;2023-07-08T13:18:45;33.70;46.60
13488;DHT22;6816;48.506;9.050;2023-07-08T13:21:46;33.80;47.10
13488;DHT22;6816;48.506;9.050;2023-07-08T13:24:48;33.90;46.90
13488;DHT22;6816;48.506;9.050;2023-07-08T13:28:15;34.00;46.90
13488;DHT22;6816;48.506;9.050;2023-07-08T13:31:23;34.10;44.70
13488;DHT22;6816;48.506;9.050;2023-07-08T13:34:25;34.20;45.40
13488;DHT22;6816;48.506;9.050;2023-07-08T13:37:25;34.30;45.80
13488;DHT22;6816;48.506;9.050;2023-07-08T13:40:28;34.40;45.40
13488;DHT22;6816;48.506;9.050;2023-07-08T13:43:31;34.50;45.00
13488;DHT22;6816;48.506;9.050;2023-07-08T13:49:45;34.70;43.80
13488;DHT22;6816;48.506;9.050;2023-07-08T13:52:46;34.70;45.10
13488;DHT22;6816;48.506;9.050;2023-07-08T13:55:47;34.70;45.60
13488;DHT22;6816;48.506;9.050;2023-07-08T13:58:50;34.80;45.10
13488;DHT22;6816;48.506;9.050;2023-07-08T14:01:56;34.80;44.80
13488;DHT22;6816;48.506;9.050;2023-07-08T14:04:58;34.80;44.40
13488;DHT22;6816;48.506;9.050;2023-07-08T14:07:59;34.70;44.40
13488;DHT22;6816;48.506;9.050;2023-07-08T14:10:59;34.70;44.50
13488;DHT22;6816;48.506;9.050;2023-07-08T14:14:00;34.80;44.70
13488;DHT22;6816;48.506;9.050;2023-07-08T14:17:01;34.80;44.60
13488;DHT22;6816;48.506;9.050;2023-07-08T14:20:01;34.80;44.30
13488;DHT22;6816;48.506;9.050;2023-07-08T14:23:02;34.90;44.60
13488;DHT22;6816;48.506;9.050;2023-07-08T14:26:09;35.00;44.30
13488;DHT22;6816;48.506;9.050;2023-07-08T14:29:11;35.10;43.20
13488;DHT22;6816;48.506;9.050;2023-07-08T14:32:23;35.20;43.90
13488;DHT22;6816;48.506;9.050;2023-07-08T14:35:26;35.30;43.60
13488;DHT22;6816;48.506;9.050;2023-07-08T14:38:27;35.50;44.00
13488;DHT22;6816;48.506;9.050;2023-07-08T14:41:28;35.60;43.70
13488;DHT22;6816;48.506;9.050;2023-07-08T14:44:34;35.80;43.70
13488;DHT22;6816;48.506;9.050;2023-07-08T14:47:35;35.90;42.10
13488;DHT22;6816;48.506;9.050;2023-07-08T14:50:36;36.00;42.70
13488;DHT22;6816;48.506;9.050;2023-07-08T14:53:36;36.10;42.80
13488;DHT22;6816;48.506;9.050;2023-07-08T14:56:38;36.30;42.80
13488;DHT22;6816;48.506;9.050;2023-07-08T14:59:39;36.50;42.30
13488;DHT22;6816;48.506;9.050;2023-07-08T15:02:41;36.60;42.00
13488;DHT22;6816;48.506;9.050;2023-07-08T15:05:42;36.70;41.80
13488;DHT22;6816;48.506;9.050;2023-07-08T15:08:43;36.90;41.70
13488;DHT22;6816;48.506;9.050;2023-07-08T15:11:44;37.00;41.50
13488;DHT22;6816;48.506;9.050;2023-07-08T15:14:45;37.10;41.20
13488;DHT22;6816;48.506;9.050;2023-07-08T15:17:45;37.30;41.00
13488;DHT22;6816;48.506;9.050;2023-07-08T15:20:46;37.40;41.00
13488;DHT22;6816;48.506;9.050;2023-07-08T15:23:47;37.60;40.80
13488;DHT22;6816;48.506;9.050;2023-07-08T15:26:48;37.80;41.00
13488;DHT22;6816;48.506;9.050;2023-07-08T15:29:49;37.90;40.00
13488;DHT22;6816;48.506;9.050;2023-07-08T15:32:51;38.10;39.90
13488;DHT22;6816;48.506;9.050;2023-07-08T15:35:51;38.30;39.70
13488;DHT22;6816;48.506;9.050;2023-07-08T15:38:53;38.50;39.60
13488;DHT22;6816;48.506;9.050;2023-07-08T15:41:53;38.60;39.10
13488;DHT22;6816;48.506;9.050;2023-07-08T15:44:54;38.80;39.00
13488;DHT22;6816;48.506;9.050;2023-07-08T15:47:55;38.90;38.60
13488;DHT22;6816;48.506;9.050;2023-07-08T15:50:55;39.10;38.50
13488;DHT22;6816;48.506;9.050;2023-07-08T15:53:56;39.20;38.30
13488;DHT22;6816;48.506;9.050;2023-07-08T15:56:57;39.30;38.80
13488;DHT22;6816;48.506;9.050;2023-07-08T15:59:57;39.40;38.20
13488;DHT22;6816;48.506;9.050;2023-07-08T16:03:00;39.50;37.90
13488;DHT22;6816;48.506;9.050;2023-07-08T16:06:02;39.50;37.10
13488;DHT22;6816;48.506;9.050;2023-07-08T16:09:02;39.50;37.20
13488;DHT22;6816;48.506;9.050;2023-07-08T16:12:04;39.40;36.90
13488;DHT22;6816;48.506;9.050;2023-07-08T16:15:08;39.40;36.90
13488;DHT22;6816;48.506;9.050;2023-07-08T16:18:10;39.30;37.20
13488;DHT22;6816;48.506;9.050;2023-07-08T16:21:12;39.30;37.40
13488;DHT22;6816;48.506;9.050;2023-07-08T16:24:13;39.20;37.30
13488;DHT22;6816;48.506;9.050;2023-07-08T16:27:13;39.20;37.60
13488;DHT22;6816;48.506;9.050;2023-07-08T16:30:19;39.20;37.50
13488;DHT22;6816;48.506;9.050;2023-07-08T16:33:21;39.20;36.80
13488;DHT22;6816;48.506;9.050;2023-07-08T16:36:24;39.10;37.60
13488;DHT22;6816;48.506;9.050;2023-07-08T16:39:25;39.10;37.00
13488;DHT22;6816;48.506;9.050;2023-07-08T16:42:26;39.00;37.20
13488;DHT22;6816;48.506;9.050;2023-07-08T16:45:26;38.70;37.30
13488;DHT22;6816;48.506;9.050;2023-07-08T16:48:27;38.50;37.30
13488;DHT22;6816;48.506;9.050;2023-07-08T16:51:28;38.20;37.10
13488;DHT22;6816;48.506;9.050;2023-07-08T16:54:29;37.90;37.10
13488;DHT22;6816;48.506;9.050;2023-07-08T16:57:29;37.60;37.40
13488;DHT22;6816;48.506;9.050;2023-07-08T17:00:30;37.30;38.50
13488;DHT22;6816;48.506;9.050;2023-07-08T17:03:32;37.10;38.60
13488;DHT22;6816;48.506;9.050;2023-07-08T17:06:33;36.70;37.80
13488;DHT22;6816;48.506;9.050;2023-07-08T17:09:34;36.40;38.10
13488;DHT22;6816;48.506;9.050;2023-07-08T17:12:35;36.10;38.70
13488;DHT22;6816;48.506;9.050;2023-07-08T17:15:36;35.90;39.20
13488;DHT22;6816;48.506;9.050;2023-07-08T17:18:37;35.60;39.40
13488;DHT22;6816;48.506;9.050;2023-07-08T17:21:38;35.40;39.70
13488;DHT22;6816;48.506;9.050;2023-07-08T17:24:38;35.20;39.80
13488;DHT22;6816;48.506;9.050;2023-07-08T17:27:39;35.00;40.20
13488;DHT22;6816;48.506;9.050;2023-07-08T17:30:41;34.80;40.10
13488;DHT22;6816;48.506;9.050;2023-07-08T17:33:42;34.70;40.60
13488;DHT22;6816;48.506;9.050;2023-07-08T17:36:43;34.50;41.10
13488;DHT22;6816;48.506;9.050;2023-07-08T17:39:44;34.40;41.30
13488;DHT22;6816;48.506;9.050;2023-07-08T17:42:45;34.30;41.70
13488;DHT22;6816;48.506;9.050;2023-07-08T17:45:46;34.10;42.10
13488;DHT22;6816;48.506;9.050;2023-07-08T17:48:48;34.00;42.40
13488;DHT22;6816;48.506;9.050;2023-07-08T17:51:50;33.80;42.80
13488;DHT22;6816;48.506;9.050;2023-07-08T17:54:51;33.70;43.00
13488;DHT22;6816;48.506;9.050;2023-07-08T17:57:52;33.50;43.40
13488;DHT22;6816;48.506;9.050;2023-07-08T18:00:53;33.40;43.80
13488;DHT22;6816;48.506;9.050;2023-07-08T18:03:53;33.30;44.00
13488;DHT22;6816;48.506;9.050;2023-07-08T18:06:54;33.10;44.20
13488;DHT22;6816;48.506;9.050;2023-07-08T18:09:54;33.00;44.30
13488;DHT22;6816;48.506;9.050;2023-07-08T18:12:56;32.90;44.70
13488;DHT22;6816;48.506;9.050;2023-07-08T18:15:57;32.80;45.00
13488;DHT22;6816;48.506;9.050;2023-07-08T18:18:58;32.70;45.20
13488;DHT22;6816;48.506;9.050;2023-07-08T18:22:02;32.60;45.60
13488;DHT22;6816;48.506;9.050;2023-07-08T18:25:11;32.50;46.00
13488;DHT22;6816;48.506;9.050;2023-07-08T18:28:12;32.30;46.30
13488;DHT22;6816;48.506;9.050;2023-07-08T18:31:18;32.30;46.70
13488;DHT22;6816;48.506;9.050;2023-07-08T18:34:19;32.20;47.10
13488;DHT22;6816;48.506;9.050;2023-07-08T18:37:21;32.00;47.30
13488;DHT22;6816;48.506;9.050;2023-07-08T18:40:34;31.90;47.50
13488;DHT22;6816;48.506;9.050;2023-07-08T18:43:39;31.80;48.60
13488;DHT22;6816;48.506;9.050;2023-07-08T18:46:40;31.70;48.10
13488;DHT22;6816;48.506;9.050;2023-07-08T18:49:41;31.60;48.40
13488;DHT22;6816;48.506;9.050;2023-07-08T18:52:43;31.40;48.80
13488;DHT22;6816;48.506;9.050;2023-07-08T18:55:45;31.30;49.30
13488;DHT22;6816;48.506;9.050;2023-07-08T18:58:46;31.20;49.70
13488;DHT22;6816;48.506;9.050;2023-07-08T19:01:47;31.10;50.60
13488;DHT22;6816;48.506;9.050;2023-07-08T19:04:48;30.90;50.00
13488;DHT22;6816;48.506;9.050;2023-07-08T19:07:49;30.80;50.30
13488;DHT22;6816;48.506;9.050;2023-07-08T19:10:52;30.70;51.10
13488;DHT22;6816;48.506;9.050;2023-07-08T19:13:55;30.60;50.80
13488;DHT22;6816;48.506;9.050;2023-07-08T19:16:55;30.50;50.90
13488;DHT22;6816;48.506;9.050;2023-07-08T19:19:56;30.40;51.10
13488;DHT22;6816;48.506;9.050;2023-07-08T19:22:56;30.30;51.40
13488;DHT22;6816;48.506;9.050;2023-07-08T19:25:57;30.20;51.50
13488;DHT22;6816;48.506;9.050;2023-07-08T19:28:58;30.10;51.70
13488;DHT22;6816;48.506;9.050;2023-07-08T19:31:58;30.00;52.00
13488;DHT22;6816;48.506;9.050;2023-07-08T19:34:59;29.90;52.10
13488;DHT22;6816;48.506;9.050;2023-07-08T19:37:59;29.80;52.30
13488;DHT22;6816;48.506;9.050;2023-07-08T19:41:02;29.70;52.60
13488;DHT22;6816;48.506;9.050;2023-07-08T19:44:08;29.60;52.70
13488;DHT22;6816;48.506;9.050;2023-07-08T19:47:10;29.50;53.20
13488;DHT22;6816;48.506;9.050;2023-07-08T19:50:11;29.40;53.10
13488;DHT22;6816;48.506;9.050;2023-07-08T19:53:13;29.30;53.10
13488;DHT22;6816;48.506;9.050;2023-07-08T19:56:15;29.20;53.40
13488;DHT22;6816;48.506;9.050;2023-07-08T19:59:16;29.10;53.60
13488;DHT22;6816;48.506;9.050;2023-07-08T20:02:17;28.90;53.50
13488;DHT22;6816;48.506;9.050;2023-07-08T20:05:19;28.80;53.70
13488;DHT22;6816;48.506;9.050;2023-07-08T20:08:31;28.70;54.60
13488;DHT22;6816;48.506;9.050;2023-07-08T20:11:32;28.60;54.20
13488;DHT22;6816;48.506;9.050;2023-07-08T20:14:32;28.40;54.40
13488;DHT22;6816;48.506;9.050;2023-07-08T20:17:35;28.30;54.50
13488;DHT22;6816;48.506;9.050;2023-07-08T20:20:36;28.20;54.70